Aviation Digital Data Service (ADDS)

Output produced by TAFs form (1415 UTC 29 May 2015)
found at http://aviationweather.gov/adds/tafs/
 
KGUP 291128Z 2912/3012 VRB04KT P6SM SCT110 BKN250 
     FM291700 28008KT P6SM BKN110 
     FM292200 31010KT P6SM VCSH SCT090 BKN150 
     FM300100 VRB05KT P6SM SCT250